首页
METAR-TAF:

METAR-TAF

机场 :

薩圖馬雷, 罗马尼亚

纬度: 47-48N, 经度: 022-53E, 海拔: 123米

当前天气观测

该预报发布于21分钟前的02:00 UTC
风速1节,风向
温度 0°C
湿度 93%
气压 1045 hPa
能見度: 5000
轻雾

METAR: LRSM 210200Z AUTO 17001KT 5000 BR FEW009/// BKN030/// M00/M01 Q1045

时间: 04:21 (02:21 UTC)

预报

该预报发布于12小时和21分钟前的14:00 UTC
预报有效从20日的 15点(UTC)到 20日的 24点(UTC)
风速4节,风向多变
能見度: 3000
阴天层高于3000英尺
轻雾
短暂存在
从 20日的 18点(UTC)到 20日的 24点(UTC)
能見度: 1500
多云层高于500英尺
阴天层高于2000英尺
轻雾

TAF: LRSM 201400Z 2015/2024 VRB04KT 3000 BR OVC030 TEMPO 2018/2024 1500 BR BKN005 OVC020

超过4000个机场的气象观测和天气预报(METAR&TAF报告)。

可查询的气象台以黄色和红色小点在地图上表示。

将鼠标移到小点上方,可查看气象台名称。

然后点击查看天气观测和预报。

如需切换地图:点击带黑十字的绿色按钮放大地图;点击带横线的绿色按钮缩小地图;或者点击绿色箭头查看邻近地区的地图。


METAR-TAF: